createdAt,value
2022-09-12T00:01:50.579Z,12.61
2022-09-12T00:05:11.528Z,12.57
2022-09-12T00:08:32.536Z,12.55
2022-09-12T00:11:56.554Z,12.52
2022-09-12T00:15:18.523Z,12.46
2022-09-12T00:18:39.568Z,12.44
2022-09-12T00:22:00.520Z,12.42
2022-09-12T00:25:21.561Z,12.42
2022-09-12T00:28:42.529Z,12.42
2022-09-12T00:32:03.539Z,12.42
2022-09-12T00:35:24.539Z,12.43
2022-09-12T00:38:48.551Z,12.36
2022-09-12T00:42:09.537Z,12.32
2022-09-12T00:45:41.586Z,12.28
2022-09-12T00:49:10.531Z,12.26
2022-09-12T00:53:17.550Z,12.21
2022-09-12T00:56:41.537Z,12.17
2022-09-12T01:00:29.539Z,12.14
2022-09-12T01:03:50.562Z,12.11
2022-09-12T01:07:12.543Z,12.10
2022-09-12T01:10:34.551Z,12.08
2022-09-12T01:13:56.550Z,12.07
2022-09-12T01:17:17.597Z,12.06
2022-09-12T01:20:59.557Z,12.04
2022-09-12T01:24:43.559Z,12.01
2022-09-12T01:28:33.551Z,11.99
2022-09-12T01:31:54.592Z,11.94
2022-09-12T01:35:29.538Z,11.90
2022-09-12T01:39:02.551Z,11.87
2022-09-12T01:42:55.549Z,11.84
2022-09-12T01:46:30.550Z,11.82
2022-09-12T01:50:09.564Z,11.77
2022-09-12T01:53:37.552Z,11.77
2022-09-12T01:57:02.554Z,11.80
2022-09-12T02:00:26.542Z,11.84
2022-09-12T02:03:54.571Z,11.89
2022-09-12T02:07:24.556Z,11.94
2022-09-12T02:10:50.599Z,11.96
2022-09-12T02:14:17.550Z,11.96
2022-09-12T02:17:39.789Z,11.97
2022-09-12T02:21:03.558Z,11.99
2022-09-12T02:24:28.601Z,11.99
2022-09-12T02:27:58.558Z,11.98
2022-09-12T02:31:43.563Z,11.97
2022-09-12T02:35:13.597Z,11.94
2022-09-12T02:39:00.621Z,11.93
2022-09-12T02:42:22.586Z,11.92
2022-09-12T02:45:43.601Z,11.98
2022-09-12T02:49:04.589Z,11.99
2022-09-12T02:52:25.570Z,11.98
2022-09-12T02:55:48.574Z,11.96
2022-09-12T02:59:13.579Z,11.89
2022-09-12T03:02:46.585Z,11.80
2022-09-12T03:06:21.568Z,11.74
2022-09-12T03:09:51.618Z,11.70
2022-09-12T03:13:37.562Z,11.64
2022-09-12T03:17:31.571Z,11.65
2022-09-12T03:21:06.598Z,11.66
2022-09-12T03:25:05.572Z,11.70
2022-09-12T03:28:29.602Z,11.74
2022-09-12T03:31:50.571Z,11.75
2022-09-12T03:35:11.580Z,11.79
2022-09-12T03:38:33.574Z,11.81
2022-09-12T03:41:54.593Z,11.83
2022-09-12T03:45:15.585Z,11.84
2022-09-12T03:48:38.651Z,11.86
2022-09-12T03:51:59.617Z,11.93
2022-09-12T03:55:20.599Z,11.97
2022-09-12T03:58:44.616Z,12.04
2022-09-12T04:02:05.631Z,12.05
2022-09-12T04:05:26.574Z,12.07
2022-09-12T04:08:48.589Z,12.11
2022-09-12T04:12:09.587Z,12.12
2022-09-12T04:15:31.596Z,12.18
2022-09-12T04:18:52.585Z,12.24
2022-09-12T04:22:13.614Z,12.28
2022-09-12T04:25:34.603Z,12.33
2022-09-12T04:28:55.583Z,12.42
2022-09-12T04:32:16.598Z,12.49
2022-09-12T04:35:37.623Z,12.50
2022-09-12T04:39:00.615Z,12.51
2022-09-12T04:42:21.612Z,12.53
2022-09-12T04:45:42.650Z,12.49
2022-09-12T04:49:03.590Z,12.48
2022-09-12T04:52:17.618Z,12.58
2022-09-12T04:55:38.613Z,12.72
2022-09-12T04:59:00.613Z,12.78
2022-09-12T05:02:21.643Z,12.82
2022-09-12T05:05:42.624Z,12.92
2022-09-12T05:09:05.610Z,13.00
2022-09-12T05:12:26.625Z,13.07
2022-09-12T05:15:47.608Z,13.20
2022-09-12T05:19:09.659Z,13.32
2022-09-12T05:22:30.614Z,13.43
2022-09-12T05:25:51.625Z,13.58
2022-09-12T05:29:13.607Z,13.77
2022-09-12T05:32:34.621Z,13.84
2022-09-12T05:35:55.621Z,13.95
2022-09-12T05:39:17.614Z,14.09
2022-09-12T05:42:38.614Z,14.14
2022-09-12T05:45:59.659Z,14.16
2022-09-12T05:49:23.615Z,14.06
2022-09-12T05:52:39.617Z,14.18
2022-09-12T05:56:00.620Z,14.26
2022-09-12T05:59:34.621Z,14.36
2022-09-12T06:02:55.620Z,14.49
2022-09-12T06:06:20.638Z,14.62
2022-09-12T06:09:41.614Z,14.77
2022-09-12T06:13:02.634Z,14.82
2022-09-12T06:16:24.663Z,14.81
2022-09-12T06:19:45.628Z,14.91
2022-09-12T06:23:09.647Z,15.16
2022-09-12T06:26:32.625Z,15.32
2022-09-12T06:29:46.641Z,15.42
2022-09-12T06:33:07.652Z,15.46
2022-09-12T06:36:37.651Z,15.51
2022-09-12T06:39:51.655Z,15.59
2022-09-12T06:43:12.640Z,15.71
2022-09-12T06:46:33.631Z,15.73
2022-09-12T06:49:54.662Z,15.68
2022-09-12T06:53:15.630Z,15.61
2022-09-12T06:56:39.645Z,15.55
2022-09-12T07:00:00.631Z,15.67
2022-09-12T07:03:21.694Z,15.91
2022-09-12T07:06:51.632Z,16.31
2022-09-12T07:10:13.633Z,16.70
2022-09-12T07:13:34.638Z,16.92
2022-09-12T07:16:55.706Z,17.15
2022-09-12T07:20:16.637Z,17.36
2022-09-12T07:23:37.648Z,17.64
2022-09-12T07:26:58.649Z,17.81
2022-09-12T07:30:20.652Z,17.68
2022-09-12T07:33:41.741Z,17.49
2022-09-12T07:37:02.642Z,17.46
2022-09-12T07:40:23.655Z,17.63
2022-09-12T07:43:44.703Z,17.58
2022-09-12T07:47:05.642Z,17.59
2022-09-12T07:50:26.655Z,17.61
2022-09-12T07:53:50.641Z,17.37
2022-09-12T07:57:11.672Z,17.25
2022-09-12T08:00:33.638Z,17.08
2022-09-12T08:04:00.656Z,17.20
2022-09-12T08:07:22.707Z,17.23
2022-09-12T08:10:43.654Z,17.22
2022-09-12T08:14:04.672Z,17.21
2022-09-12T08:17:25.650Z,17.12
2022-09-12T08:20:46.667Z,17.01
2022-09-12T08:24:10.681Z,16.83
2022-09-12T08:27:31.661Z,16.78
2022-09-12T08:30:52.748Z,16.80
2022-09-12T08:34:13.671Z,16.85
2022-09-12T08:37:34.699Z,16.92
2022-09-12T08:41:06.672Z,16.97
2022-09-12T08:44:33.663Z,17.11
2022-09-12T08:47:58.670Z,17.40
2022-09-12T08:51:23.655Z,17.72
2022-09-12T08:54:45.677Z,18.16
2022-09-12T08:58:00.675Z,18.59
2022-09-12T09:01:50.725Z,18.87
2022-09-12T09:05:28.654Z,18.74
2022-09-12T09:08:49.685Z,18.75
2022-09-12T09:12:46.688Z,18.81
2022-09-12T09:16:25.681Z,18.75
2022-09-12T09:19:54.764Z,18.94
2022-09-12T09:23:29.682Z,19.03
2022-09-12T09:27:36.900Z,19.04
2022-09-12T09:30:56.696Z,19.04
2022-09-12T09:34:26.685Z,19.01
2022-09-12T09:37:58.703Z,19.12
2022-09-12T09:41:49.689Z,19.14
2022-09-12T09:45:16.706Z,19.11
2022-09-12T09:48:46.790Z,19.20
2022-09-12T09:52:10.736Z,19.26
2022-09-12T09:55:37.685Z,19.27
2022-09-12T09:58:58.712Z,19.23
2022-09-12T10:02:38.715Z,19.43
2022-09-12T10:06:03.710Z,19.65
2022-09-12T10:09:44.687Z,19.70
2022-09-12T10:13:20.697Z,20.01
2022-09-12T10:16:46.684Z,20.14
2022-09-12T10:20:20.998Z,20.17
2022-09-12T10:23:44.771Z,20.10
2022-09-12T10:27:27.687Z,19.78
2022-09-12T10:30:49.727Z,19.57
2022-09-12T10:34:12.702Z,19.76
2022-09-12T10:37:52.226Z,19.84
2022-09-12T10:41:16.709Z,19.96
2022-09-12T10:44:45.721Z,20.03
2022-09-12T10:48:08.708Z,20.18
2022-09-12T10:51:40.720Z,20.38
2022-09-12T10:55:01.706Z,20.34
2022-09-12T10:58:51.743Z,20.45
2022-09-12T11:02:42.814Z,20.70
2022-09-12T11:06:08.712Z,20.82
2022-09-12T11:09:45.726Z,20.80
2022-09-12T11:13:59.730Z,20.62
2022-09-12T11:18:00.741Z,20.26
2022-09-12T11:21:52.732Z,20.14
2022-09-12T11:25:13.729Z,20.26
2022-09-12T11:28:59.761Z,20.25
2022-09-12T11:32:38.763Z,20.37
2022-09-12T11:36:04.731Z,20.44
2022-09-12T11:39:30.724Z,20.59
2022-09-12T11:42:54.732Z,20.54
2022-09-12T11:46:31.738Z,20.54
2022-09-12T11:50:12.807Z,20.63
2022-09-12T11:53:47.857Z,20.43
2022-09-12T11:57:50.743Z,20.14
2022-09-12T12:01:25.708Z,19.74
2022-09-12T12:05:09.742Z,19.60
2022-09-12T12:08:30.764Z,19.72
2022-09-12T12:11:58.745Z,19.88
2022-09-12T12:15:20.740Z,19.78
2022-09-12T12:18:43.725Z,19.89
2022-09-12T12:22:05.761Z,19.76
2022-09-12T12:25:29.873Z,19.79
2022-09-12T12:28:57.770Z,19.82
2022-09-12T12:32:19.735Z,19.97
2022-09-12T12:35:49.764Z,20.32
2022-09-12T12:39:11.756Z,20.94
2022-09-12T12:42:47.795Z,22.05
2022-09-12T12:46:16.799Z,22.21
2022-09-12T12:49:41.794Z,21.65
2022-09-12T12:53:13.745Z,21.13
2022-09-12T12:56:58.752Z,20.59
2022-09-12T13:00:40.004Z,20.31
2022-09-12T13:04:10.790Z,20.12
2022-09-12T13:07:54.812Z,19.98
2022-09-12T13:11:27.740Z,19.82
2022-09-12T13:15:07.758Z,19.86
2022-09-12T13:18:35.806Z,20.01
2022-09-12T13:22:28.766Z,20.12
2022-09-12T13:25:50.756Z,20.52
2022-09-12T13:29:34.778Z,22.57
2022-09-12T13:32:56.768Z,24.71
2022-09-12T13:36:48.768Z,26.18
2022-09-12T13:40:30.788Z,25.61
2022-09-12T13:43:56.746Z,24.87
2022-09-12T13:47:17.789Z,24.84
2022-09-12T13:50:41.785Z,24.74
2022-09-12T13:54:03.770Z,23.88
2022-09-12T13:57:47.790Z,22.72
2022-09-12T14:01:24.842Z,22.04
2022-09-12T14:05:03.828Z,22.19
2022-09-12T14:08:27.791Z,22.80
2022-09-12T14:11:51.781Z,24.07
2022-09-12T14:15:16.147Z,25.34
2022-09-12T14:18:45.881Z,26.56
2022-09-12T14:22:08.812Z,27.02
2022-09-12T14:25:38.805Z,27.34
2022-09-12T14:29:01.132Z,27.77
2022-09-12T14:32:34.825Z,27.06
2022-09-12T14:36:19.802Z,25.25
2022-09-12T14:39:55.865Z,23.25
2022-09-12T14:43:17.852Z,21.62
2022-09-12T14:46:46.204Z,20.55
2022-09-12T14:50:11.133Z,19.78
2022-09-12T14:53:31.801Z,19.22
2022-09-12T14:57:09.886Z,18.83
2022-09-12T15:00:32.807Z,18.49
2022-09-12T15:03:59.967Z,18.09
2022-09-12T15:07:55.939Z,17.75
2022-09-12T15:11:19.805Z,17.36
2022-09-12T15:14:40.794Z,17.06
2022-09-12T15:18:06.228Z,16.85
2022-09-12T15:21:31.811Z,16.98
2022-09-12T15:24:52.811Z,17.51
2022-09-12T15:28:13.773Z,17.83
2022-09-12T15:31:36.894Z,17.88
2022-09-12T15:34:59.994Z,17.25
2022-09-12T15:38:25.643Z,16.60
2022-09-12T15:41:48.805Z,16.17
2022-09-12T15:45:11.829Z,15.88
2022-09-12T15:48:33.805Z,15.67
2022-09-12T15:51:54.860Z,15.54
2022-09-12T15:55:16.976Z,15.41
2022-09-12T15:58:49.795Z,15.30
2022-09-12T16:02:11.030Z,15.15
2022-09-12T16:05:35.921Z,15.03
2022-09-12T16:08:56.825Z,14.94
2022-09-12T16:12:17.804Z,14.83
2022-09-12T16:15:39.069Z,14.73
2022-09-12T16:19:00.058Z,14.62
2022-09-12T16:22:20.830Z,14.46
2022-09-12T16:25:41.999Z,14.27
2022-09-12T16:29:08.957Z,14.10
2022-09-12T16:32:29.962Z,13.95
2022-09-12T16:35:50.861Z,13.83
2022-09-12T16:39:13.097Z,13.69
2022-09-12T16:42:33.876Z,13.54
2022-09-12T16:45:54.864Z,13.47
2022-09-12T16:49:15.830Z,13.37
2022-09-12T16:52:36.841Z,13.25
2022-09-12T16:56:03.134Z,13.18
2022-09-12T16:59:23.832Z,13.14
2022-09-12T17:02:45.052Z,13.13
2022-09-12T17:06:27.910Z,13.23
2022-09-12T17:09:49.888Z,13.38
2022-09-12T17:13:11.015Z,13.52
2022-09-12T17:16:32.884Z,13.63
2022-09-12T17:19:54.252Z,13.72
2022-09-12T17:23:14.833Z,13.75
2022-09-12T17:26:35.837Z,13.77
2022-09-12T17:29:57.114Z,13.73
2022-09-12T17:33:17.849Z,13.63
2022-09-12T17:36:38.859Z,13.56
2022-09-12T17:40:02.914Z,13.56
2022-09-12T17:43:24.129Z,13.64
2022-09-12T17:46:50.864Z,13.73
2022-09-12T17:50:30.912Z,13.81
2022-09-12T17:53:51.851Z,13.86
2022-09-12T17:57:12.832Z,13.86
2022-09-12T18:00:54.143Z,13.91
2022-09-12T18:04:14.955Z,13.94
2022-09-12T18:07:35.951Z,13.97
2022-09-12T18:10:56.917Z,13.96
2022-09-12T18:14:19.427Z,14.00
2022-09-12T18:17:49.986Z,14.02
2022-09-12T18:21:10.859Z,14.06
2022-09-12T18:24:31.970Z,14.11
2022-09-12T18:27:52.875Z,14.11
2022-09-12T18:31:14.058Z,14.10
2022-09-12T18:34:34.855Z,14.10
2022-09-12T18:37:56.873Z,14.11
2022-09-12T18:41:24.089Z,14.09
2022-09-12T18:44:44.927Z,14.10
2022-09-12T18:48:05.921Z,14.10
2022-09-12T18:51:30.042Z,14.09
2022-09-12T18:54:50.940Z,14.05
2022-09-12T18:58:12.935Z,14.01
2022-09-12T19:01:36.973Z,14.00
2022-09-12T19:04:57.893Z,14.00
2022-09-12T19:08:18.871Z,14.01
2022-09-12T19:11:42.173Z,14.02
2022-09-12T19:15:02.926Z,14.02
2022-09-12T19:18:23.911Z,13.99
2022-09-12T19:21:45.878Z,13.98
2022-09-12T19:25:06.964Z,13.96
2022-09-12T19:28:27.880Z,13.91
2022-09-12T19:31:48.906Z,13.87
2022-09-12T19:35:09.855Z,13.84
2022-09-12T19:38:31.891Z,13.83
2022-09-12T19:41:53.875Z,13.81
2022-09-12T19:45:14.901Z,13.81
2022-09-12T19:48:35.900Z,13.78
2022-09-12T19:51:56.908Z,13.77
2022-09-12T19:55:17.898Z,13.75
2022-09-12T19:58:38.889Z,13.73
2022-09-12T20:01:59.979Z,13.72
2022-09-12T20:05:20.883Z,13.70
2022-09-12T20:08:41.923Z,13.65
2022-09-12T20:12:02.919Z,13.58
2022-09-12T20:15:24.878Z,13.51
2022-09-12T20:18:45.955Z,13.45
2022-09-12T20:22:07.951Z,13.42
2022-09-12T20:25:28.912Z,13.41
2022-09-12T20:28:50.908Z,13.42
2022-09-12T20:32:12.091Z,13.45
2022-09-12T20:35:33.985Z,13.48
2022-09-12T20:38:55.883Z,13.51
2022-09-12T20:42:16.879Z,13.53
2022-09-12T20:45:37.902Z,13.54
2022-09-12T20:48:59.948Z,13.55
2022-09-12T20:52:20.902Z,13.53
2022-09-12T20:55:41.916Z,13.53
2022-09-12T20:59:02.912Z,13.52
2022-09-12T21:02:27.958Z,13.51
2022-09-12T21:05:48.899Z,13.50
2022-09-12T21:09:09.899Z,13.50
2022-09-12T21:12:30.879Z,13.50
2022-09-12T21:15:52.968Z,13.48
2022-09-12T21:19:13.892Z,13.48
2022-09-12T21:22:34.993Z,13.45
2022-09-12T21:25:55.893Z,13.47
2022-09-12T21:29:16.959Z,13.46
2022-09-12T21:32:40.904Z,13.46
2022-09-12T21:36:02.902Z,13.47
2022-09-12T21:39:23.907Z,13.46
2022-09-12T21:42:44.899Z,13.44
2022-09-12T21:46:10.923Z,13.44
2022-09-12T21:49:24.909Z,13.41
2022-09-12T21:52:45.900Z,13.39
2022-09-12T21:56:06.906Z,13.34
2022-09-12T21:59:28.900Z,13.28
2022-09-12T22:02:49.923Z,13.18
2022-09-12T22:06:17.771Z,13.12
2022-09-12T22:09:41.908Z,13.03
2022-09-12T22:13:02.895Z,12.95
2022-09-12T22:16:23.950Z,12.88
2022-09-12T22:19:45.910Z,12.82
2022-09-12T22:23:25.910Z,12.77
2022-09-12T22:26:56.919Z,12.72
2022-09-12T22:30:18.907Z,12.68
2022-09-12T22:33:39.959Z,12.59
2022-09-12T22:37:01.914Z,12.57
2022-09-12T22:40:23.996Z,12.55
2022-09-12T22:43:45.911Z,12.52
2022-09-12T22:47:06.940Z,12.44
2022-09-12T22:50:27.971Z,12.35
2022-09-12T22:53:49.931Z,12.30
2022-09-12T22:57:10.924Z,12.27
2022-09-12T23:00:33.979Z,12.23
2022-09-12T23:03:54.915Z,12.21
2022-09-12T23:07:16.951Z,12.18
2022-09-12T23:10:37.908Z,12.17
2022-09-12T23:14:00.927Z,12.15
2022-09-12T23:17:21.910Z,12.11
2022-09-12T23:20:42.933Z,12.11
2022-09-12T23:23:57.917Z,12.05
2022-09-12T23:27:18.926Z,12.04
2022-09-12T23:30:39.919Z,12.01
2022-09-12T23:34:00.957Z,11.97
2022-09-12T23:37:21.954Z,11.95
2022-09-12T23:40:42.945Z,11.95
2022-09-12T23:44:03.981Z,11.92
2022-09-12T23:47:24.981Z,11.89
2022-09-12T23:50:45.930Z,11.83
2022-09-12T23:54:06.940Z,11.76
2022-09-12T23:57:27.935Z,11.77
